FIN1DF EDDM-EFHK
Flight info
| Callsign | FIN1DF |
|---|---|
| Flight time | N/A |
| Altitude | 36000 |
| Route | ANKER9Q ANKER Y104 MAMOR L132 AGNAV DCT SUPIL DCT KILNU DCT UNRIG/N0450F370 DCT BODLA L132 DEMUR N746 GORPI DCT ALAMI DCT OKEVU DCT EVADI Y370 DIVAM |
| Aircraft | A321/M-SDE3FGHIRWY/LB1 |
Departure
| Time | 2026-05-06 10:49 |
|---|---|
| Airport | Munich Airport (EDDM) |
Arrival
| Time | N/A |
|---|---|
| Airport | Helsinki Vantaa Airport (EFHK) |
| Time | Latitude | Longitude | Altitude | Speed | Heading |
|---|---|---|---|---|---|
| 2026-05-06 10:15 | 48.35130 | 11.78336 | 1482 ft | 0 kts | 83° |
| 2026-05-06 10:38 | 48.35129 | 11.78320 | 1482 ft | 2 kts | 82° |
| 2026-05-06 10:38 | 48.35127 | 11.78297 | 1482 ft | 2 kts | 83° |
| 2026-05-06 10:38 | 48.35125 | 11.78275 | 1482 ft | 2 kts | 83° |
| 2026-05-06 10:39 | 48.35123 | 11.78253 | 1482 ft | 2 kts | 83° |
| 2026-05-06 10:39 | 48.35122 | 11.78238 | 1482 ft | 2 kts | 83° |
| 2026-05-06 10:39 | 48.35116 | 11.78218 | 1483 ft | 2 kts | 44° |
| 2026-05-06 10:39 | 48.35103 | 11.78205 | 1483 ft | 2 kts | 14° |
| 2026-05-06 10:40 | 48.35094 | 11.78204 | 1483 ft | 0 kts | 355° |
| 2026-05-06 10:40 | 48.35086 | 11.78205 | 1483 ft | 0 kts | 353° |
| 2026-05-06 10:42 | 48.35087 | 11.78205 | 1483 ft | 0 kts | 353° |
| 2026-05-06 10:43 | 48.35131 | 11.78198 | 1483 ft | 10 kts | 354° |
| 2026-05-06 10:43 | 48.35204 | 11.78186 | 1482 ft | 10 kts | 354° |
| 2026-05-06 10:43 | 48.35279 | 11.78173 | 1482 ft | 12 kts | 353° |
| 2026-05-06 10:44 | 48.35344 | 11.78003 | 1482 ft | 10 kts | 264° |
| 2026-05-06 10:44 | 48.35336 | 11.77890 | 1482 ft | 10 kts | 263° |
| 2026-05-06 10:44 | 48.35347 | 11.77790 | 1482 ft | 10 kts | 327° |
| 2026-05-06 10:44 | 48.35426 | 11.77770 | 1481 ft | 14 kts | 354° |
| 2026-05-06 10:45 | 48.35541 | 11.77749 | 1480 ft | 16 kts | 353° |
| 2026-05-06 10:45 | 48.35656 | 11.77730 | 1479 ft | 16 kts | 354° |
| 2026-05-06 10:45 | 48.35766 | 11.77711 | 1478 ft | 15 kts | 353° |
| 2026-05-06 10:45 | 48.35872 | 11.77691 | 1478 ft | 14 kts | 353° |
| 2026-05-06 10:46 | 48.35972 | 11.77673 | 1477 ft | 14 kts | 354° |
| 2026-05-06 10:46 | 48.36061 | 11.77629 | 1477 ft | 13 kts | 302° |
| 2026-05-06 10:46 | 48.36062 | 11.77493 | 1477 ft | 14 kts | 264° |
| 2026-05-06 10:46 | 48.36048 | 11.77323 | 1477 ft | 16 kts | 263° |
| 2026-05-06 10:47 | 48.36035 | 11.77159 | 1478 ft | 15 kts | 260° |
| 2026-05-06 10:47 | 48.36014 | 11.77016 | 1478 ft | 13 kts | 287° |
| 2026-05-06 10:47 | 48.36092 | 11.76965 | 1478 ft | 13 kts | 353° |
| 2026-05-06 10:47 | 48.36182 | 11.76949 | 1477 ft | 12 kts | 353° |
| 2026-05-06 10:48 | 48.36265 | 11.76952 | 1477 ft | 12 kts | 27° |
| 2026-05-06 10:48 | 48.36305 | 11.77113 | 1476 ft | 26 kts | 84° |
| 2026-05-06 10:48 | 48.36352 | 11.77733 | 1474 ft | 92 kts | 83° |
| 2026-05-06 10:48 | 48.36448 | 11.78986 | 1471 ft | 149 kts | 84° |
| 2026-05-06 10:49 | 48.36587 | 11.80746 | 1629 ft | 181 kts | 82° |
| 2026-05-06 10:49 | 48.36732 | 11.82596 | 2271 ft | 178 kts | 82° |
| 2026-05-06 10:49 | 48.36879 | 11.84440 | 2908 ft | 179 kts | 82° |
| 2026-05-06 10:49 | 48.37151 | 11.86246 | 3439 ft | 182 kts | 62° |
| 2026-05-06 10:50 | 48.38104 | 11.87526 | 3766 ft | 195 kts | 24° |
| 2026-05-06 10:50 | 48.39383 | 11.88415 | 4108 ft | 210 kts | 33° |
| 2026-05-06 10:50 | 48.40559 | 11.89844 | 4466 ft | 227 kts | 41° |
| 2026-05-06 10:50 | 48.41775 | 11.91563 | 4737 ft | 250 kts | 44° |
| 2026-05-06 10:51 | 48.42965 | 11.93571 | 5178 ft | 267 kts | 54° |
| 2026-05-06 10:51 | 48.44030 | 11.95890 | 5842 ft | 273 kts | 56° |
| 2026-05-06 10:51 | 48.45145 | 11.98215 | 6569 ft | 276 kts | 46° |
| 2026-05-06 10:51 | 48.46762 | 11.99709 | 7235 ft | 282 kts | 17° |
| 2026-05-06 10:52 | 48.48710 | 12.00036 | 7929 ft | 285 kts | 1° |
| 2026-05-06 10:52 | 48.50694 | 12.00072 | 8594 ft | 290 kts | 1° |
| 2026-05-06 10:52 | 48.52735 | 12.00119 | 9254 ft | 294 kts | 2° |
| 2026-05-06 10:52 | 48.54778 | 12.00185 | 9879 ft | 298 kts | 2° |
| 2026-05-06 10:53 | 48.56838 | 12.00469 | 10480 ft | 301 kts | 12° |
| 2026-05-06 10:53 | 48.58870 | 12.01351 | 10990 ft | 307 kts | 22° |
| 2026-05-06 10:53 | 48.60858 | 12.02652 | 11277 ft | 321 kts | 25° |
| 2026-05-06 10:53 | 48.62929 | 12.04107 | 11548 ft | 336 kts | 25° |
| 2026-05-06 10:54 | 48.65088 | 12.05629 | 11847 ft | 351 kts | 25° |
| 2026-05-06 10:54 | 48.67343 | 12.07201 | 12299 ft | 358 kts | 24° |
| 2026-05-06 10:54 | 48.69607 | 12.08766 | 12810 ft | 363 kts | 24° |
| 2026-05-06 10:54 | 48.71900 | 12.10350 | 13325 ft | 368 kts | 24° |
| 2026-05-06 10:55 | 48.74237 | 12.11963 | 13859 ft | 373 kts | 24° |
| 2026-05-06 10:55 | 48.76605 | 12.13622 | 14375 ft | 377 kts | 24° |
| 2026-05-06 10:55 | 48.78988 | 12.15334 | 14925 ft | 381 kts | 25° |
| 2026-05-06 10:55 | 48.81375 | 12.17061 | 15508 ft | 384 kts | 25° |
| 2026-05-06 10:56 | 48.83803 | 12.18820 | 16095 ft | 386 kts | 24° |
| 2026-05-06 10:56 | 48.86225 | 12.20567 | 16680 ft | 388 kts | 24° |
| 2026-05-06 10:56 | 48.88663 | 12.22327 | 17211 ft | 389 kts | 24° |
| 2026-05-06 10:56 | 48.91122 | 12.24071 | 17712 ft | 393 kts | 24° |
| 2026-05-06 10:57 | 48.93612 | 12.25817 | 18251 ft | 396 kts | 24° |
| 2026-05-06 10:57 | 48.96128 | 12.27582 | 18785 ft | 399 kts | 24° |
| 2026-05-06 10:57 | 48.98654 | 12.29357 | 19298 ft | 402 kts | 24° |
| 2026-05-06 10:57 | 49.01184 | 12.31140 | 19789 ft | 404 kts | 24° |
| 2026-05-06 10:58 | 49.03751 | 12.32955 | 20273 ft | 408 kts | 24° |
| 2026-05-06 10:58 | 49.06331 | 12.34781 | 20751 ft | 410 kts | 24° |
| 2026-05-06 10:58 | 49.08895 | 12.36599 | 21210 ft | 413 kts | 24° |
| 2026-05-06 10:58 | 49.11506 | 12.38452 | 21640 ft | 415 kts | 24° |
| 2026-05-06 10:59 | 49.14132 | 12.40317 | 22051 ft | 419 kts | 24° |
| 2026-05-06 10:59 | 49.16783 | 12.42202 | 22477 ft | 422 kts | 24° |
| 2026-05-06 10:59 | 49.19421 | 12.44079 | 22889 ft | 425 kts | 24° |
| 2026-05-06 10:59 | 49.22109 | 12.45993 | 23296 ft | 427 kts | 23° |
| 2026-05-06 11:00 | 49.24799 | 12.47911 | 23692 ft | 430 kts | 23° |
| 2026-05-06 11:00 | 49.27517 | 12.49851 | 24080 ft | 433 kts | 23° |
| 2026-05-06 11:00 | 49.30254 | 12.51801 | 24462 ft | 436 kts | 22° |
| 2026-05-06 11:00 | 49.33058 | 12.53546 | 24834 ft | 438 kts | 17° |
| 2026-05-06 11:01 | 49.35971 | 12.54927 | 25202 ft | 439 kts | 12° |
| 2026-05-06 11:01 | 49.38951 | 12.55968 | 25576 ft | 440 kts | 8° |
| 2026-05-06 11:01 | 49.41925 | 12.56885 | 25940 ft | 443 kts | 8° |
| 2026-05-06 11:01 | 49.44973 | 12.57805 | 26301 ft | 446 kts | 8° |
| 2026-05-06 11:02 | 49.48004 | 12.58731 | 26655 ft | 448 kts | 8° |
| 2026-05-06 11:02 | 49.51085 | 12.59690 | 27003 ft | 451 kts | 8° |
| 2026-05-06 11:02 | 49.54126 | 12.60647 | 27334 ft | 454 kts | 8° |
| 2026-05-06 11:02 | 49.57238 | 12.61593 | 27664 ft | 456 kts | 6° |
| 2026-05-06 11:03 | 49.60388 | 12.62408 | 27992 ft | 458 kts | 5° |
| 2026-05-06 11:03 | 49.63532 | 12.63174 | 28312 ft | 461 kts | 5° |
| 2026-05-06 11:03 | 49.66686 | 12.63933 | 28622 ft | 463 kts | 5° |
| 2026-05-06 11:03 | 49.69908 | 12.64710 | 28934 ft | 466 kts | 5° |
| 2026-05-06 11:04 | 49.73118 | 12.65487 | 29231 ft | 469 kts | 5° |
| 2026-05-06 11:04 | 49.76328 | 12.66269 | 29506 ft | 472 kts | 5° |
| 2026-05-06 11:04 | 49.79564 | 12.67060 | 29781 ft | 474 kts | 5° |
| 2026-05-06 11:04 | 49.82820 | 12.67859 | 30076 ft | 477 kts | 5° |
| 2026-05-06 11:05 | 49.86109 | 12.68667 | 30368 ft | 479 kts | 5° |
| 2026-05-06 11:05 | 49.89396 | 12.69476 | 30641 ft | 482 kts | 5° |
| 2026-05-06 11:05 | 49.92714 | 12.70293 | 30905 ft | 484 kts | 5° |
| 2026-05-06 11:05 | 49.96032 | 12.71112 | 31166 ft | 486 kts | 5° |
| 2026-05-06 11:06 | 49.99387 | 12.71941 | 31476 ft | 487 kts | 5° |
| 2026-05-06 11:06 | 50.02711 | 12.72764 | 31799 ft | 486 kts | 6° |
| 2026-05-06 11:06 | 50.06069 | 12.73596 | 32127 ft | 485 kts | 6° |
| 2026-05-06 11:06 | 50.09381 | 12.74417 | 32453 ft | 484 kts | 6° |
| 2026-05-06 11:07 | 50.12680 | 12.75237 | 32764 ft | 483 kts | 6° |
| 2026-05-06 11:07 | 50.16033 | 12.76070 | 33074 ft | 482 kts | 6° |
| 2026-05-06 11:07 | 50.19322 | 12.76888 | 33380 ft | 480 kts | 6° |
| 2026-05-06 11:07 | 50.22527 | 12.77688 | 33673 ft | 479 kts | 6° |
| 2026-05-06 11:08 | 50.25722 | 12.78488 | 33970 ft | 477 kts | 6° |
| 2026-05-06 11:08 | 50.29099 | 12.79352 | 34279 ft | 476 kts | 7° |
| 2026-05-06 11:08 | 50.32329 | 12.80434 | 34561 ft | 477 kts | 11° |
| 2026-05-06 11:08 | 50.35501 | 12.81854 | 34828 ft | 477 kts | 16° |
| 2026-05-06 11:09 | 50.38647 | 12.83648 | 35087 ft | 477 kts | 20° |
| 2026-05-06 11:09 | 50.41658 | 12.85751 | 35294 ft | 478 kts | 25° |
| 2026-05-06 11:09 | 50.44653 | 12.88136 | 35474 ft | 479 kts | 26° |
| 2026-05-06 11:09 | 50.47611 | 12.90396 | 35622 ft | 479 kts | 23° |
| 2026-05-06 11:10 | 50.50680 | 12.92444 | 35768 ft | 479 kts | 19° |
| 2026-05-06 11:10 | 50.53809 | 12.94179 | 35913 ft | 478 kts | 15° |
| 2026-05-06 11:10 | 50.57008 | 12.95750 | 36055 ft | 478 kts | 14° |
| 2026-05-06 11:10 | 50.60148 | 12.97238 | 36189 ft | 477 kts | 14° |
| 2026-05-06 11:11 | 50.63340 | 12.98742 | 36311 ft | 478 kts | 14° |
| 2026-05-06 11:11 | 50.66518 | 13.00245 | 36434 ft | 478 kts | 14° |
| 2026-05-06 11:11 | 50.69693 | 13.01754 | 36558 ft | 478 kts | 14° |
| 2026-05-06 11:11 | 50.72875 | 13.03274 | 36675 ft | 478 kts | 14° |
| 2026-05-06 11:12 | 50.76057 | 13.04799 | 36771 ft | 479 kts | 14° |
| 2026-05-06 11:12 | 50.82383 | 13.07842 | 36774 ft | 479 kts | 14° |
| 2026-05-06 11:13 | 50.88759 | 13.10919 | 36770 ft | 478 kts | 15° |
| 2026-05-06 11:13 | 50.95100 | 13.13989 | 36767 ft | 478 kts | 15° |
| 2026-05-06 11:14 | 51.01393 | 13.17044 | 36775 ft | 477 kts | 15° |
| 2026-05-06 11:14 | 51.07756 | 13.20142 | 36781 ft | 477 kts | 15° |
| 2026-05-06 11:15 | 51.14064 | 13.23223 | 36779 ft | 477 kts | 15° |
| 2026-05-06 11:15 | 51.20374 | 13.26314 | 36776 ft | 476 kts | 15° |
| 2026-05-06 11:16 | 51.26678 | 13.29409 | 36773 ft | 476 kts | 15° |
| 2026-05-06 11:16 | 51.33017 | 13.32531 | 36772 ft | 476 kts | 15° |
| 2026-05-06 11:17 | 51.39302 | 13.35636 | 36772 ft | 475 kts | 15° |
| 2026-05-06 11:17 | 51.45600 | 13.38754 | 36772 ft | 475 kts | 15° |
| 2026-05-06 11:18 | 51.51886 | 13.41875 | 36773 ft | 475 kts | 15° |
| 2026-05-06 11:18 | 51.58180 | 13.45009 | 36773 ft | 475 kts | 15° |
| 2026-05-06 11:19 | 51.64471 | 13.48157 | 36772 ft | 475 kts | 15° |
| 2026-05-06 11:19 | 51.70774 | 13.51314 | 36770 ft | 475 kts | 15° |
| 2026-05-06 11:20 | 51.77043 | 13.54461 | 36768 ft | 474 kts | 15° |
| 2026-05-06 11:20 | 51.83333 | 13.57631 | 36768 ft | 474 kts | 15° |
| 2026-05-06 11:21 | 51.89585 | 13.60878 | 36768 ft | 474 kts | 17° |
| 2026-05-06 11:21 | 51.95806 | 13.64406 | 36770 ft | 475 kts | 18° |
| 2026-05-06 11:22 | 52.01935 | 13.67901 | 36772 ft | 475 kts | 18° |
| 2026-05-06 11:22 | 52.08133 | 13.71421 | 36779 ft | 475 kts | 18° |
| 2026-05-06 11:23 | 52.14357 | 13.74956 | 36783 ft | 474 kts | 18° |
| 2026-05-06 11:23 | 52.20540 | 13.78474 | 36784 ft | 474 kts | 18° |
| 2026-05-06 11:24 | 52.26749 | 13.82018 | 36787 ft | 474 kts | 18° |
| 2026-05-06 11:24 | 52.32963 | 13.85575 | 36791 ft | 474 kts | 18° |
| 2026-05-06 11:25 | 52.39157 | 13.89130 | 36793 ft | 474 kts | 18° |
| 2026-05-06 11:25 | 52.45353 | 13.92697 | 36797 ft | 474 kts | 18° |
| 2026-05-06 11:26 | 52.51556 | 13.96278 | 36799 ft | 473 kts | 18° |
| 2026-05-06 11:26 | 52.57722 | 13.99849 | 36803 ft | 473 kts | 18° |
| 2026-05-06 11:27 | 52.63939 | 14.03459 | 36804 ft | 473 kts | 18° |
| 2026-05-06 11:27 | 52.70100 | 14.07050 | 36807 ft | 473 kts | 18° |
| 2026-05-06 11:28 | 52.76272 | 14.10658 | 36808 ft | 473 kts | 18° |
| 2026-05-06 11:28 | 52.82497 | 14.14303 | 36810 ft | 473 kts | 18° |
| 2026-05-06 11:29 | 52.88667 | 14.17927 | 36811 ft | 473 kts | 19° |
| 2026-05-06 11:29 | 52.94822 | 14.21558 | 36813 ft | 472 kts | 19° |
| 2026-05-06 11:30 | 53.01013 | 14.25220 | 36813 ft | 472 kts | 19° |
| 2026-05-06 11:30 | 53.07183 | 14.28877 | 36812 ft | 472 kts | 19° |
| 2026-05-06 11:31 | 53.13304 | 14.32517 | 36812 ft | 471 kts | 19° |
| 2026-05-06 11:31 | 53.19467 | 14.36193 | 36812 ft | 471 kts | 19° |
| 2026-05-06 11:32 | 53.25594 | 14.39861 | 36813 ft | 470 kts | 19° |
| 2026-05-06 11:32 | 53.31662 | 14.43982 | 36811 ft | 470 kts | 23° |
| 2026-05-06 11:33 | 53.37585 | 14.48335 | 36809 ft | 469 kts | 24° |
| 2026-05-06 11:33 | 53.43558 | 14.52737 | 36804 ft | 469 kts | 24° |
| 2026-05-06 11:34 | 53.49521 | 14.57128 | 36802 ft | 469 kts | 24° |
| 2026-05-06 11:34 | 53.55442 | 14.61496 | 36800 ft | 468 kts | 24° |
| 2026-05-06 11:35 | 53.61383 | 14.65892 | 36801 ft | 468 kts | 24° |
| 2026-05-06 11:35 | 53.67367 | 14.70331 | 36801 ft | 467 kts | 24° |
| 2026-05-06 11:36 | 53.73312 | 14.74755 | 36803 ft | 467 kts | 24° |
| 2026-05-06 11:36 | 53.79285 | 14.79213 | 36804 ft | 467 kts | 24° |
| 2026-05-06 11:37 | 53.85193 | 14.83635 | 36806 ft | 467 kts | 24° |
| 2026-05-06 11:37 | 53.91128 | 14.88093 | 36808 ft | 467 kts | 24° |
| 2026-05-06 11:38 | 53.97090 | 14.92582 | 36810 ft | 468 kts | 24° |
| 2026-05-06 11:38 | 54.03017 | 14.97059 | 36812 ft | 468 kts | 24° |
| 2026-05-06 11:39 | 54.08986 | 15.01583 | 36814 ft | 468 kts | 24° |
| 2026-05-06 11:39 | 54.14931 | 15.06083 | 36848 ft | 469 kts | 24° |
| 2026-05-06 11:40 | 54.20926 | 15.10625 | 36863 ft | 470 kts | 24° |
| 2026-05-06 11:40 | 54.26918 | 15.15177 | 36841 ft | 470 kts | 24° |
| 2026-05-06 11:41 | 54.32885 | 15.19724 | 36841 ft | 470 kts | 24° |
| 2026-05-06 11:41 | 54.38873 | 15.24307 | 36848 ft | 471 kts | 24° |
| 2026-05-06 11:42 | 54.44843 | 15.28916 | 36857 ft | 471 kts | 24° |
| 2026-05-06 11:42 | 54.50801 | 15.33535 | 36862 ft | 472 kts | 24° |
| 2026-05-06 11:43 | 54.56753 | 15.38160 | 36864 ft | 472 kts | 24° |
| 2026-05-06 11:43 | 54.62732 | 15.42817 | 36866 ft | 472 kts | 24° |
| 2026-05-06 11:44 | 54.71663 | 15.49801 | 36870 ft | 472 kts | 24° |
| 2026-05-06 11:44 | 54.77649 | 15.54499 | 36871 ft | 473 kts | 24° |
| 2026-05-06 11:45 | 54.83579 | 15.59167 | 36873 ft | 473 kts | 24° |
| 2026-05-06 11:45 | 54.89563 | 15.63940 | 36874 ft | 474 kts | 25° |
| 2026-05-06 11:46 | 54.95276 | 15.69520 | 36878 ft | 475 kts | 32° |
| 2026-05-06 11:46 | 55.00811 | 15.75706 | 36879 ft | 475 kts | 33° |
| 2026-05-06 11:47 | 55.06368 | 15.81982 | 36881 ft | 476 kts | 33° |
| 2026-05-06 11:47 | 55.11912 | 15.88233 | 36881 ft | 477 kts | 33° |
| 2026-05-06 11:48 | 55.17555 | 15.94598 | 36884 ft | 478 kts | 33° |
| 2026-05-06 11:48 | 55.23134 | 16.00907 | 36891 ft | 479 kts | 33° |
| 2026-05-06 11:49 | 55.28697 | 16.07221 | 36902 ft | 480 kts | 33° |
| 2026-05-06 11:49 | 55.34296 | 16.13600 | 36909 ft | 482 kts | 32° |
| 2026-05-06 11:50 | 55.39903 | 16.20009 | 36909 ft | 484 kts | 32° |
| 2026-05-06 11:50 | 55.45531 | 16.26459 | 36909 ft | 484 kts | 32° |
| 2026-05-06 11:51 | 55.51131 | 16.32901 | 36910 ft | 485 kts | 32° |
| 2026-05-06 11:51 | 55.56754 | 16.39392 | 36912 ft | 485 kts | 32° |
| 2026-05-06 11:52 | 55.62407 | 16.45942 | 36913 ft | 486 kts | 32° |
| 2026-05-06 11:52 | 55.68036 | 16.52493 | 36916 ft | 486 kts | 32° |
| 2026-05-06 11:53 | 55.73663 | 16.59061 | 36919 ft | 486 kts | 32° |
| 2026-05-06 11:53 | 55.79283 | 16.65643 | 36923 ft | 486 kts | 33° |
| 2026-05-06 11:54 | 55.84745 | 16.72059 | 36927 ft | 486 kts | 33° |
| 2026-05-06 11:54 | 55.90346 | 16.78664 | 36932 ft | 486 kts | 33° |
| 2026-05-06 11:55 | 55.96009 | 16.85363 | 36938 ft | 486 kts | 33° |
| 2026-05-06 11:55 | 56.01616 | 16.92022 | 36942 ft | 486 kts | 33° |
| 2026-05-06 11:56 | 56.07228 | 16.98710 | 36946 ft | 486 kts | 33° |
| 2026-05-06 11:56 | 56.12849 | 17.05438 | 36948 ft | 489 kts | 32° |
| 2026-05-06 11:57 | 56.18481 | 17.12198 | 36952 ft | 491 kts | 32° |
| 2026-05-06 11:57 | 56.24147 | 17.19015 | 36956 ft | 492 kts | 32° |
| 2026-05-06 11:58 | 56.29816 | 17.25866 | 36960 ft | 492 kts | 32° |
| 2026-05-06 11:58 | 56.35463 | 17.32711 | 36962 ft | 492 kts | 32° |
| 2026-05-06 11:59 | 56.41131 | 17.39609 | 36965 ft | 492 kts | 32° |
| 2026-05-06 11:59 | 56.46783 | 17.46514 | 36967 ft | 492 kts | 32° |
| 2026-05-06 12:00 | 56.52414 | 17.53417 | 36967 ft | 492 kts | 32° |
| 2026-05-06 12:00 | 56.58052 | 17.60355 | 36965 ft | 492 kts | 32° |
| 2026-05-06 12:01 | 56.63691 | 17.67320 | 36961 ft | 492 kts | 32° |
| 2026-05-06 12:01 | 56.69323 | 17.74303 | 36959 ft | 492 kts | 32° |
| 2026-05-06 12:02 | 56.74932 | 17.81285 | 36958 ft | 493 kts | 32° |
| 2026-05-06 12:02 | 56.80571 | 17.88330 | 36958 ft | 493 kts | 32° |
| 2026-05-06 12:03 | 56.86196 | 17.95384 | 36959 ft | 493 kts | 32° |
| 2026-05-06 12:03 | 56.91840 | 18.02487 | 36963 ft | 493 kts | 32° |
| 2026-05-06 12:04 | 56.97459 | 18.09586 | 36967 ft | 494 kts | 32° |
| 2026-05-06 12:04 | 57.03074 | 18.16708 | 36970 ft | 494 kts | 32° |
| 2026-05-06 12:05 | 57.08718 | 18.23893 | 36974 ft | 495 kts | 31° |
| 2026-05-06 12:05 | 57.14348 | 18.31082 | 36978 ft | 495 kts | 31° |
| 2026-05-06 12:06 | 57.19971 | 18.38292 | 36983 ft | 495 kts | 31° |
| 2026-05-06 12:06 | 57.25577 | 18.45509 | 36986 ft | 496 kts | 31° |
| 2026-05-06 12:07 | 57.31210 | 18.52787 | 36990 ft | 496 kts | 31° |
| 2026-05-06 12:07 | 57.36873 | 18.60130 | 36994 ft | 496 kts | 31° |
| 2026-05-06 12:08 | 57.42477 | 18.67425 | 36997 ft | 496 kts | 32° |
| 2026-05-06 12:08 | 57.48131 | 18.74814 | 37002 ft | 497 kts | 32° |
| 2026-05-06 12:09 | 57.53752 | 18.82191 | 37005 ft | 497 kts | 32° |
| 2026-05-06 12:09 | 57.59381 | 18.89607 | 37007 ft | 498 kts | 32° |
| 2026-05-06 12:10 | 57.65007 | 18.97047 | 37008 ft | 498 kts | 32° |
| 2026-05-06 12:10 | 57.70624 | 19.04502 | 37009 ft | 497 kts | 32° |
| 2026-05-06 12:11 | 57.76223 | 19.11963 | 37008 ft | 497 kts | 31° |
| 2026-05-06 12:11 | 57.81842 | 19.19479 | 37008 ft | 497 kts | 31° |
| 2026-05-06 12:12 | 57.87483 | 19.27050 | 37007 ft | 497 kts | 32° |
| 2026-05-06 12:12 | 57.93091 | 19.34620 | 37006 ft | 497 kts | 31° |
| 2026-05-06 12:13 | 57.98685 | 19.42196 | 37005 ft | 498 kts | 31° |
| 2026-05-06 12:13 | 58.04278 | 19.49797 | 37003 ft | 498 kts | 31° |
| 2026-05-06 12:14 | 58.09927 | 19.57505 | 36991 ft | 499 kts | 31° |
| 2026-05-06 12:14 | 58.15557 | 19.65218 | 36981 ft | 499 kts | 32° |
| 2026-05-06 12:15 | 58.21186 | 19.72956 | 36996 ft | 500 kts | 32° |
| 2026-05-06 12:15 | 58.26791 | 19.80691 | 37009 ft | 500 kts | 32° |
| 2026-05-06 12:16 | 58.32423 | 19.88498 | 37010 ft | 500 kts | 32° |
| 2026-05-06 12:16 | 58.38029 | 19.96300 | 37010 ft | 500 kts | 32° |
| 2026-05-06 12:17 | 58.43608 | 20.04096 | 37006 ft | 499 kts | 32° |
| 2026-05-06 12:17 | 58.49204 | 20.11950 | 37003 ft | 499 kts | 32° |
| 2026-05-06 12:18 | 58.54799 | 20.19834 | 37001 ft | 499 kts | 32° |
| 2026-05-06 12:18 | 58.60377 | 20.27728 | 37000 ft | 499 kts | 32° |
| 2026-05-06 12:19 | 58.65951 | 20.35637 | 36996 ft | 499 kts | 31° |
| 2026-05-06 12:19 | 58.71536 | 20.43596 | 36994 ft | 499 kts | 31° |
| 2026-05-06 12:20 | 58.77092 | 20.51547 | 36993 ft | 499 kts | 32° |
| 2026-05-06 12:20 | 58.82684 | 20.59596 | 36993 ft | 499 kts | 31° |
| 2026-05-06 12:21 | 58.88229 | 20.67595 | 37047 ft | 499 kts | 32° |
| 2026-05-06 12:21 | 58.93786 | 20.75638 | 37087 ft | 500 kts | 33° |
| 2026-05-06 12:22 | 58.99300 | 20.83835 | 37048 ft | 502 kts | 36° |
| 2026-05-06 12:22 | 59.04370 | 20.93301 | 37019 ft | 507 kts | 46° |
| 2026-05-06 12:23 | 59.08702 | 21.04135 | 37013 ft | 510 kts | 55° |
| 2026-05-06 12:23 | 59.12437 | 21.15912 | 37012 ft | 511 kts | 58° |
| 2026-05-06 12:24 | 59.16096 | 21.27810 | 37012 ft | 512 kts | 57° |
| 2026-05-06 12:24 | 59.19775 | 21.39647 | 37010 ft | 512 kts | 57° |
| 2026-05-06 12:25 | 59.23457 | 21.51510 | 37006 ft | 513 kts | 57° |
| 2026-05-06 12:25 | 59.27103 | 21.63363 | 37007 ft | 513 kts | 57° |
| 2026-05-06 12:26 | 59.30755 | 21.75303 | 37006 ft | 514 kts | 58° |
| 2026-05-06 12:26 | 59.34412 | 21.87323 | 37007 ft | 515 kts | 58° |
| 2026-05-06 12:27 | 59.38071 | 21.99410 | 36986 ft | 514 kts | 58° |
| 2026-05-06 12:27 | 59.39888 | 22.05430 | 36618 ft | 515 kts | 58° |
| 2026-05-06 12:27 | 59.41700 | 22.11440 | 35871 ft | 523 kts | 58° |
| 2026-05-06 12:28 | 59.43573 | 22.17665 | 35112 ft | 529 kts | 58° |
| 2026-05-06 12:28 | 59.45433 | 22.23866 | 34514 ft | 531 kts | 57° |
| 2026-05-06 12:28 | 59.47310 | 22.30140 | 33909 ft | 533 kts | 57° |
| 2026-05-06 12:28 | 59.49209 | 22.36508 | 33252 ft | 536 kts | 57° |
| 2026-05-06 12:29 | 59.51091 | 22.42843 | 32504 ft | 540 kts | 57° |
| 2026-05-06 12:29 | 59.52963 | 22.49167 | 31538 ft | 544 kts | 57° |
| 2026-05-06 12:29 | 59.54877 | 22.55659 | 30598 ft | 547 kts | 57° |
| 2026-05-06 12:29 | 59.56777 | 22.62123 | 29883 ft | 544 kts | 58° |
| 2026-05-06 12:30 | 59.58664 | 22.68554 | 29262 ft | 539 kts | 59° |
| 2026-05-06 12:30 | 59.60534 | 22.74947 | 28591 ft | 534 kts | 59° |
| 2026-05-06 12:30 | 59.62399 | 22.81341 | 27944 ft | 529 kts | 59° |
| 2026-05-06 12:30 | 59.64224 | 22.87606 | 27312 ft | 523 kts | 58° |
| 2026-05-06 12:31 | 59.66021 | 22.93789 | 26698 ft | 518 kts | 58° |
| 2026-05-06 12:31 | 59.67792 | 22.99904 | 26138 ft | 513 kts | 58° |
| 2026-05-06 12:31 | 59.69572 | 23.06071 | 25578 ft | 507 kts | 58° |
| 2026-05-06 12:31 | 59.71296 | 23.12060 | 25037 ft | 502 kts | 58° |
| 2026-05-06 12:32 | 59.73010 | 23.18025 | 24495 ft | 496 kts | 58° |
| 2026-05-06 12:32 | 59.74694 | 23.23897 | 23964 ft | 491 kts | 58° |
| 2026-05-06 12:32 | 59.76360 | 23.29717 | 23432 ft | 486 kts | 58° |
| 2026-05-06 12:32 | 59.78012 | 23.35500 | 22901 ft | 481 kts | 58° |
| 2026-05-06 12:33 | 59.79652 | 23.41246 | 22290 ft | 480 kts | 58° |
| 2026-05-06 12:33 | 59.81289 | 23.46996 | 21720 ft | 478 kts | 58° |
| 2026-05-06 12:33 | 59.82920 | 23.52747 | 21191 ft | 474 kts | 58° |
| 2026-05-06 12:33 | 59.84529 | 23.58441 | 20687 ft | 471 kts | 58° |
| 2026-05-06 12:34 | 59.86102 | 23.64025 | 20195 ft | 467 kts | 58° |
| 2026-05-06 12:34 | 59.87671 | 23.69606 | 19868 ft | 457 kts | 59° |
| 2026-05-06 12:34 | 59.89204 | 23.75089 | 19663 ft | 443 kts | 59° |
| 2026-05-06 12:34 | 59.90752 | 23.80294 | 19321 ft | 434 kts | 55° |